Palma de Mallorca Aeropuerto en Baleares

latitud = 39° 33' 39''N | longitud = 002° 44' 12''E
8 metros sobre el nivel del mar |

Fecha, hora, temperatura, viento dirección y velocidad, humedad y presión.

  • 23-04-2018 10:00:00 | 20.90°C | Este |15.00 km/h | 52.00% | 1018.50 hPa
  • 23-04-2018 09:00:00 | 17.10°C | Nordeste |5.00 km/h | 67.00% | 1018.20 hPa
  • 23-04-2018 08:00:00 | 12.50°C | Norte |2.00 km/h | 79.00% | 1017.70 hPa
  • 23-04-2018 07:00:00 | 11.80°C | Nordeste |3.00 km/h | 79.00% | 1017.40 hPa
  • 23-04-2018 06:00:00 | 12.40°C | Calma |0.00 km/h | 77.00% | 1017.20 hPa
  • 23-04-2018 05:00:00 | 11.90°C | Norte |3.00 km/h | 81.00% | 1017.50 hPa
  • 23-04-2018 04:00:00 | 13.10°C | Calma |0.00 km/h | 78.00% | 1017.70 hPa
  • 23-04-2018 03:00:00 | 13.20°C | Nordeste |3.00 km/h | 78.00% | 1018.00 hPa
  • 23-04-2018 02:00:00 | 13.80°C | Este |5.00 km/h | 78.00% | 1018.30 hPa
  • 23-04-2018 01:00:00 | 15.70°C | Este |9.00 km/h | 70.00% | 1018.60 hPa
  • 23-04-2018 00:00:00 | 16.10°C | Este |11.00 km/h | 67.00% | 1018.40 hPa
  • 22-04-2018 23:00:00 | 16.50°C | Este |5.00 km/h | 67.00% | 1018.30 hPa
  • 22-04-2018 22:00:00 | 18.00°C | Este |8.00 km/h | 58.00% | 1017.90 hPa
  • 22-04-2018 21:00:00 | 19.60°C | Este |14.00 km/h | 54.00% | 1017.10 hPa
  • 22-04-2018 20:00:00 | 22.60°C | Este |10.00 km/h | 48.00% | 1016.70 hPa
  • 22-04-2018 19:00:00 | 23.60°C | Noroeste |4.00 km/h | 53.00% | 1016.50 hPa
  • 22-04-2018 18:00:00 | 24.40°C | Oeste |10.00 km/h | 49.00% | 1016.50 hPa
  • 22-04-2018 17:00:00 | 25.00°C | Oeste |17.00 km/h | 46.00% | 1016.80 hPa
  • 22-04-2018 16:00:00 | 24.50°C | Oeste |11.00 km/h | 49.00% | 1016.80 hPa
  • 22-04-2018 15:00:00 | 24.50°C | Sudoeste |16.00 km/h | 46.00% | 1017.40 hPa
  • 22-04-2018 14:00:00 | 25.50°C | Sudoeste |8.00 km/h | 42.00% | 1017.50 hPa
  • 22-04-2018 13:00:00 | 24.70°C | Nordeste |2.00 km/h | 42.00% | 1018.10 hPa
  • 22-04-2018 12:00:00 | 23.30°C | Calma |0.00 km/h | 44.00% | 1018.50 hPa
  • 22-04-2018 11:00:00 | 22.30°C | Calma |0.00 km/h | 45.00% | 1018.50 hPa
    • Datos gráficos mensuales de Palma de Mallorca Aeropuerto: